Time;durP1;ratioP1;P1;durP2;ratioP2;P2;SDS_P1;SDS_P2;PMS_P1;PMS_P2;Temp;Humidity;BMP_temperature;BMP_pressure;BME280_temperature;BME280_humidity;BME280_pressure;Samples;Min_cycle;Max_cycle;Signal;HPM_P1;HPM_P2
2024/01/27 00:00:39;;;;;;;17.17;4.63;;;;;;;1.77;100.00;103259.53;4989308;28;20545;-63
2024/01/27 00:03:04;;;;;;;15.67;6.13;;;;;;;1.73;100.00;103262.50;4975671;28;20031;-63
2024/01/27 00:05:29;;;;;;;14.90;5.10;;;;;;;1.73;100.00;103267.63;4976854;28;20514;-63
2024/01/27 00:07:55;;;;;;;15.27;5.10;;;;;;;1.71;100.00;103267.44;4989149;28;20084;-63
2024/01/27 00:10:20;;;;;;;15.87;4.70;;;;;;;1.73;100.00;103258.31;4982169;28;20585;-63
2024/01/27 00:12:45;;;;;;;13.57;4.67;;;;;;;1.71;100.00;103256.34;4982304;28;20030;-63
2024/01/27 00:15:10;;;;;;;17.40;5.70;;;;;;;1.70;100.00;103252.88;4969938;28;20031;-63
2024/01/27 00:17:36;;;;;;;13.93;4.60;;;;;;;1.68;100.00;103256.91;4970139;28;20067;-63
2024/01/27 00:20:02;;;;;;;13.87;5.17;;;;;;;1.65;100.00;103251.47;4976549;28;20050;-63
2024/01/27 00:22:27;;;;;;;10.43;4.27;;;;;;;1.62;100.00;103249.47;4977357;28;20022;-63
2024/01/27 00:24:52;;;;;;;12.33;5.37;;;;;;;1.59;100.00;103248.25;4988983;28;20113;-63
2024/01/27 00:27:17;;;;;;;12.87;5.00;;;;;;;1.56;100.00;103241.16;4976418;28;20391;-63
2024/01/27 00:29:43;;;;;;;15.07;4.17;;;;;;;1.58;100.00;103247.34;4981375;28;20077;-63
2024/01/27 00:32:08;;;;;;;15.03;5.30;;;;;;;1.53;100.00;103254.50;4971119;28;20042;-63
2024/01/27 00:34:33;;;;;;;14.23;4.67;;;;;;;1.51;100.00;103261.09;4970783;28;20534;-63
2024/01/27 00:36:59;;;;;;;12.73;4.93;;;;;;;1.51;100.00;103258.53;4971557;28;20031;-63
2024/01/27 00:39:24;;;;;;;17.67;6.03;;;;;;;1.50;100.00;103263.50;4970112;28;20380;-63
2024/01/27 00:41:51;;;;;;;13.70;5.40;;;;;;;1.49;100.00;103270.28;4971438;28;20030;-63
2024/01/27 00:44:16;;;;;;;15.53;5.33;;;;;;;1.46;100.00;103266.47;4970198;28;20058;-63
2024/01/27 00:46:41;;;;;;;11.13;5.13;;;;;;;1.41;100.00;103273.63;4970802;28;20070;-63
2024/01/27 00:49:07;;;;;;;11.63;4.70;;;;;;;1.40;100.00;103279.50;4969413;28;20027;-63
2024/01/27 00:51:32;;;;;;;15.77;6.13;;;;;;;1.40;100.00;103275.25;4983579;28;20467;-63
2024/01/27 00:53:57;;;;;;;15.67;5.73;;;;;;;1.38;100.00;103274.22;4971233;28;20034;-63
2024/01/27 00:56:23;;;;;;;14.77;5.77;;;;;;;1.37;100.00;103276.63;5008327;28;20076;-63
2024/01/27 00:58:48;;;;;;;17.53;5.97;;;;;;;1.34;100.00;103277.16;4997148;28;20494;-63
2024/01/27 01:01:13;;;;;;;13.60;4.93;;;;;;;1.36;100.00;103277.34;4980073;28;20103;-63
2024/01/27 01:03:38;;;;;;;15.23;5.77;;;;;;;1.37;100.00;103277.50;4970760;28;20030;-63
2024/01/27 01:06:04;;;;;;;14.47;5.60;;;;;;;1.34;100.00;103276.25;4968299;28;20113;-63
2024/01/27 01:08:29;;;;;;;14.93;5.40;;;;;;;1.34;100.00;103276.25;4981854;28;20406;-63
2024/01/27 01:10:54;;;;;;;15.17;5.33;;;;;;;1.30;100.00;103270.81;4968716;28;20407;-63
2024/01/27 01:13:20;;;;;;;13.23;5.00;;;;;;;1.31;100.00;103277.72;4973671;28;20081;-63
2024/01/27 01:15:46;;;;;;;16.57;5.80;;;;;;;1.29;100.00;103274.13;4975506;28;20034;-63
2024/01/27 01:18:11;;;;;;;16.10;6.27;;;;;;;1.29;100.00;103278.31;4973381;28;20033;-63
2024/01/27 01:20:36;;;;;;;15.13;5.57;;;;;;;1.30;100.00;103275.00;4987508;28;20041;-63
2024/01/27 01:23:02;;;;;;;18.13;5.60;;;;;;;1.29;100.00;103274.13;4974296;28;20026;-63
2024/01/27 01:25:28;;;;;;;14.10;5.20;;;;;;;1.25;100.00;103271.97;4975628;28;20034;-63
2024/01/27 01:27:53;;;;;;;14.63;5.50;;;;;;;1.25;100.00;103278.72;4968658;28;20085;-62
2024/01/27 01:30:18;;;;;;;18.50;6.03;;;;;;;1.25;100.00;103288.94;4969010;28;20035;-63
2024/01/27 01:32:43;;;;;;;15.60;6.27;;;;;;;1.23;100.00;103283.66;4973808;28;20041;-62
2024/01/27 01:35:12;;;;;;;15.13;6.20;;;;;;;1.21;100.00;103281.69;4975337;28;20545;-63
2024/01/27 01:37:38;;;;;;;12.37;5.23;;;;;;;1.20;100.00;103273.13;4985783;28;20485;-62
2024/01/27 01:40:04;;;;;;;16.30;5.73;;;;;;;1.18;100.00;103269.47;4974797;28;20031;-63
2024/01/27 01:42:29;;;;;;;12.80;5.30;;;;;;;1.20;100.00;103275.66;4968669;28;20033;-62
2024/01/27 01:44:55;;;;;;;15.13;6.10;;;;;;;1.18;100.00;103274.59;4968547;28;20041;-63
2024/01/27 01:47:22;;;;;;;17.87;6.10;;;;;;;1.18;100.00;103262.72;4975070;28;20046;-64
2024/01/27 01:49:47;;;;;;;16.17;5.73;;;;;;;1.19;100.00;103267.09;4974540;28;20029;-62
2024/01/27 01:52:16;;;;;;;13.27;5.50;;;;;;;1.18;100.00;103275.50;4968694;28;20031;-62
2024/01/27 01:54:41;;;;;;;14.00;5.67;;;;;;;1.20;100.00;103283.34;4981161;28;20069;-62
2024/01/27 01:57:07;;;;;;;9.93;5.67;;;;;;;1.23;100.00;103283.66;4998245;28;20057;-63
2024/01/27 01:59:32;;;;;;;13.93;6.17;;;;;;;1.22;100.00;103286.97;4977203;28;20096;-62
2024/01/27 02:01:58;;;;;;;15.30;6.40;;;;;;;1.18;100.00;103285.72;4970167;28;20085;-63
2024/01/27 02:04:23;;;;;;;15.97;5.90;;;;;;;1.13;100.00;103285.94;4968343;28;20087;-64
2024/01/27 02:06:48;;;;;;;12.87;6.00;;;;;;;1.12;100.00;103279.91;4997869;28;20037;-64
2024/01/27 02:09:14;;;;;;;14.60;5.87;;;;;;;1.15;100.00;103281.91;4975662;28;20478;-64
2024/01/27 02:11:39;;;;;;;15.37;6.37;;;;;;;1.14;100.00;103277.53;4985185;28;20034;-63
2024/01/27 02:14:06;;;;;;;13.77;6.47;;;;;;;1.15;100.00;103284.47;4976301;28;20030;-64
2024/01/27 02:16:31;;;;;;;17.87;6.63;;;;;;;1.14;100.00;103278.44;4980705;28;20478;-64
2024/01/27 02:18:56;;;;;;;13.23;5.93;;;;;;;1.14;100.00;103282.63;4968156;28;20038;-64
2024/01/27 02:21:21;;;;;;;15.83;7.27;;;;;;;1.12;100.00;103279.91;4967918;28;20435;-63
2024/01/27 02:23:47;;;;;;;14.27;6.83;;;;;;;1.11;100.00;103288.34;4968025;28;20038;-63
2024/01/27 02:26:12;;;;;;;13.67;5.93;;;;;;;1.11;100.00;103285.78;4967367;28;20022;-64
2024/01/27 02:28:37;;;;;;;18.40;5.93;;;;;;;1.09;100.00;103289.81;4968367;28;20030;-63
2024/01/27 02:31:03;;;;;;;15.57;6.30;;;;;;;1.13;100.00;103296.16;4969069;28;20031;-64
2024/01/27 02:33:29;;;;;;;16.03;6.40;;;;;;;1.06;100.00;103299.69;4967952;28;20035;-64
2024/01/27 02:35:54;;;;;;;16.40;7.17;;;;;;;1.05;100.00;103290.19;4980972;28;20019;-64
2024/01/27 02:38:20;;;;;;;14.40;6.20;;;;;;;1.01;100.00;103295.72;4969007;28;20041;-63
2024/01/27 02:40:45;;;;;;;16.43;5.83;;;;;;;0.99;100.00;103294.66;4986907;28;20026;-63
2024/01/27 02:43:10;;;;;;;17.07;7.80;;;;;;;0.99;100.00;103292.09;4974624;28;20030;-63
2024/01/27 02:45:35;;;;;;;15.27;6.17;;;;;;;0.95;100.00;103291.72;4969020;28;20190;-64
2024/01/27 02:48:01;;;;;;;16.40;7.17;;;;;;;0.92;100.00;103283.75;4980673;28;20038;-63
2024/01/27 02:50:26;;;;;;;14.37;6.37;;;;;;;0.92;100.00;103285.38;4986638;28;20030;-63
2024/01/27 02:52:52;;;;;;;14.17;5.80;;;;;;;0.90;100.00;103281.78;4986121;28;20390;-64
2024/01/27 02:55:17;;;;;;;12.50;6.90;;;;;;;0.89;100.00;103288.50;4991057;28;20025;-62
2024/01/27 02:57:42;;;;;;;17.80;6.40;;;;;;;0.87;100.00;103282.31;4996893;28;20126;-64
2024/01/27 03:00:08;;;;;;;13.73;6.20;;;;;;;0.89;100.00;103297.81;4998859;28;20242;-63
2024/01/27 03:02:34;;;;;;;12.40;6.27;;;;;;;0.87;100.00;103282.31;4999922;28;20026;-64
2024/01/27 03:05:00;;;;;;;15.67;6.07;;;;;;;0.83;100.00;103283.63;4996136;28;20038;-63
2024/01/27 03:07:25;;;;;;;11.03;6.03;;;;;;;0.85;100.00;103294.00;4991008;28;20030;-63
2024/01/27 03:09:50;;;;;;;13.67;6.27;;;;;;;0.83;100.00;103303.13;4986012;28;20029;-64
2024/01/27 03:12:15;;;;;;;16.10;6.90;;;;;;;0.80;100.00;103287.47;4990299;28;20022;-63
2024/01/27 03:14:41;;;;;;;14.07;7.10;;;;;;;0.78;100.00;103294.06;4974037;28;20027;-63
2024/01/27 03:17:07;;;;;;;14.33;6.67;;;;;;;0.74;100.00;103299.59;4971327;28;20046;-64
2024/01/27 03:19:32;;;;;;;10.03;5.83;;;;;;;0.76;100.00;103292.97;4973889;28;20514;-63
2024/01/27 03:21:58;;;;;;;18.07;6.33;;;;;;;0.74;100.00;103294.47;4980243;28;20075;-63
2024/01/27 03:24:23;;;;;;;12.93;6.73;;;;;;;0.73;100.00;103307.97;4971524;28;20030;-63
2024/01/27 03:26:48;;;;;;;18.50;6.37;;;;;;;0.69;100.00;103292.31;4981274;28;20033;-63
2024/01/27 03:29:14;;;;;;;15.00;6.83;;;;;;;0.69;100.00;103299.97;4973934;28;20031;-64
2024/01/27 03:31:39;;;;;;;11.90;5.83;;;;;;;0.69;100.00;103297.41;4980691;28;20368;-63
2024/01/27 03:34:05;;;;;;;12.30;6.00;;;;;;;0.67;100.00;103293.78;4976504;28;20022;-64
2024/01/27 03:36:30;;;;;;;16.10;6.50;;;;;;;0.68;100.00;103293.06;4980341;28;20209;-64
2024/01/27 03:38:57;;;;;;;13.70;5.73;;;;;;;0.70;100.00;103291.56;4971304;28;20022;-63
2024/01/27 03:41:23;;;;;;;12.57;5.87;;;;;;;0.73;100.00;103295.19;4971715;28;20141;-63
2024/01/27 03:43:48;;;;;;;13.47;5.43;;;;;;;0.74;100.00;103294.47;4976262;28;20101;-63
2024/01/27 03:46:14;;;;;;;12.50;5.77;;;;;;;0.72;100.00;103291.72;4978938;28;20441;-63
2024/01/27 03:48:39;;;;;;;17.47;6.70;;;;;;;0.73;100.00;103292.63;4973252;28;20046;-63
2024/01/27 03:51:04;;;;;;;18.40;6.57;;;;;;;0.67;100.00;103286.13;4972318;28;20022;-63
2024/01/27 03:53:29;;;;;;;15.40;6.30;;;;;;;0.69;100.00;103287.19;4973044;28;20059;-63
2024/01/27 03:55:58;;;;;;;12.30;6.10;;;;;;;0.66;100.00;103297.06;5003566;28;20040;-63
2024/01/27 03:58:23;;;;;;;21.10;7.77;;;;;;;0.65;100.00;103295.25;5008848;28;20509;-64
2024/01/27 04:00:49;;;;;;;15.33;6.17;;;;;;;0.68;100.00;103298.16;5001145;28;20042;-63
2024/01/27 04:03:14;;;;;;;13.70;6.07;;;;;;;0.68;100.00;103299.78;5002368;28;20034;-63
2024/01/27 04:05:39;;;;;;;16.33;5.90;;;;;;;0.64;100.00;103301.09;4997456;28;20033;-63
2024/01/27 04:08:06;;;;;;;14.30;6.40;;;;;;;0.66;100.00;103302.19;5006643;28;20484;-63
2024/01/27 04:10:31;;;;;;;14.33;5.33;;;;;;;0.65;100.00;103310.56;4989781;28;20434;-63
2024/01/27 04:12:56;;;;;;;15.70;6.93;;;;;;;0.65;100.00;103310.56;4990211;28;20081;-63
2024/01/27 04:15:22;;;;;;;12.23;5.87;;;;;;;0.66;100.00;103307.28;5008648;28;20060;-63
2024/01/27 04:17:47;;;;;;;16.03;5.87;;;;;;;0.63;100.00;103322.22;5006651;28;20037;-63
2024/01/27 04:20:12;;;;;;;11.77;5.90;;;;;;;0.62;100.00;103310.22;4999954;28;20395;-64
2024/01/27 04:22:38;;;;;;;17.13;5.83;;;;;;;0.60;100.00;103311.69;4990767;28;20030;-63
2024/01/27 04:25:04;;;;;;;19.73;5.80;;;;;;;0.62;100.00;103305.13;5007947;28;20117;-63
2024/01/27 04:27:30;;;;;;;12.70;5.07;;;;;;;0.62;100.00;103305.13;4993763;28;20089;-63
2024/01/27 04:29:56;;;;;;;14.80;5.90;;;;;;;0.60;100.00;103306.56;5007909;28;20034;-63
2024/01/27 04:32:22;;;;;;;11.90;6.33;;;;;;;0.61;100.00;103298.22;5005757;28;20030;-63
2024/01/27 04:34:47;;;;;;;13.87;5.70;;;;;;;0.58;100.00;103300.38;5007800;28;20422;-64
2024/01/27 04:37:13;;;;;;;13.07;5.47;;;;;;;0.57;100.00;103306.25;5007228;28;20474;-63
2024/01/27 04:39:38;;;;;;;11.00;5.70;;;;;;;0.54;100.00;103305.91;4996680;28;20023;-63
2024/01/27 04:42:06;;;;;;;11.93;6.13;;;;;;;0.51;100.00;103313.19;4985176;28;20493;-64
2024/01/27 04:44:31;;;;;;;16.03;5.90;;;;;;;0.51;100.00;103316.66;4978904;28;20030;-63
2024/01/27 04:46:56;;;;;;;17.97;6.50;;;;;;;0.49;100.00;103317.25;4971807;28;20458;-63
2024/01/27 04:49:21;;;;;;;18.90;6.70;;;;;;;0.44;100.00;103309.97;4969107;28;20431;-64
2024/01/27 04:51:47;;;;;;;17.63;6.90;;;;;;;0.42;100.00;103311.44;4968777;28;20018;-63
2024/01/27 04:54:12;;;;;;;16.20;6.00;;;;;;;0.39;100.00;103311.09;4981583;28;20028;-63
2024/01/27 04:56:37;;;;;;;14.07;5.67;;;;;;;0.35;100.00;103307.28;5007081;28;20520;-64
2024/01/27 04:59:03;;;;;;;11.97;6.27;;;;;;;0.36;100.00;103315.81;4981725;28;20053;-63
2024/01/27 05:01:28;;;;;;;17.17;6.53;;;;;;;0.33;100.00;103311.28;4969661;28;20018;-63
2024/01/27 05:03:53;;;;;;;14.40;6.77;;;;;;;0.34;100.00;103317.31;5000906;28;20378;-63
2024/01/27 05:06:19;;;;;;;19.17;6.30;;;;;;;0.35;100.00;103309.84;4974324;28;20077;-63
2024/01/27 05:08:44;;;;;;;16.63;7.00;;;;;;;0.34;100.00;103307.13;4981649;28;20051;-63
2024/01/27 05:11:10;;;;;;;14.57;7.47;;;;;;;0.30;100.00;103310.97;4969076;28;20031;-63
2024/01/27 05:13:35;;;;;;;12.87;6.23;;;;;;;0.27;100.00;103309.69;4969310;28;20372;-63
2024/01/27 05:16:00;;;;;;;12.43;6.33;;;;;;;0.23;100.00;103314.44;4968889;28;20047;-64
2024/01/27 05:18:26;;;;;;;14.20;6.93;;;;;;;0.22;100.00;103316.81;4968900;28;20035;-63
2024/01/27 05:20:51;;;;;;;15.53;6.60;;;;;;;0.18;100.00;103315.53;4981482;28;20065;-63
2024/01/27 05:23:17;;;;;;;16.93;8.50;;;;;;;0.15;100.00;103312.66;4975407;28;20026;-63
2024/01/27 05:25:42;;;;;;;16.97;6.70;;;;;;;0.09;100.00;103304.31;4987208;28;20458;-63
2024/01/27 05:28:07;;;;;;;19.17;7.63;;;;;;;0.08;100.00;103315.22;4987525;28;20030;-63
2024/01/27 05:30:32;;;;;;;9.73;6.17;;;;;;;0.08;100.00;103305.03;4973952;28;20412;-63
2024/01/27 05:32:58;;;;;;;13.73;6.90;;;;;;;0.06;100.00;103309.03;4968274;28;20027;-63
2024/01/27 05:35:23;;;;;;;15.83;7.17;;;;;;;0.07;100.00;103311.75;4968512;28;20039;-63
2024/01/27 05:37:49;;;;;;;15.77;6.97;;;;;;;0.06;100.00;103302.31;4968376;28;20410;-64
2024/01/27 05:40:14;;;;;;;15.90;7.43;;;;;;;0.07;100.00;103299.00;4970509;28;20073;-64
2024/01/27 05:42:41;;;;;;;20.47;6.90;;;;;;;0.05;100.00;103289.38;4969331;28;20019;-63
2024/01/27 05:45:07;;;;;;;17.57;7.67;;;;;;;0.08;100.00;103289.72;4970083;28;20113;-63
2024/01/27 05:47:33;;;;;;;16.43;7.17;;;;;;;0.06;100.00;103283.53;4979304;28;20153;-63
2024/01/27 05:49:59;;;;;;;13.70;6.40;;;;;;;0.07;100.00;103285.38;4982353;28;20030;-63
2024/01/27 05:52:25;;;;;;;18.17;7.10;;;;;;;0.07;100.00;103285.38;4977528;28;20518;-63
2024/01/27 05:54:50;;;;;;;18.37;7.67;;;;;;;0.05;100.00;103281.75;4989420;28;20037;-63
2024/01/27 05:57:16;;;;;;;16.57;6.90;;;;;;;0.03;100.00;103290.84;4995919;28;20034;-63
2024/01/27 05:59:41;;;;;;;16.10;7.43;;;;;;;0.03;100.00;103293.41;4992187;28;20121;-64
2024/01/27 06:02:06;;;;;;;14.17;7.20;;;;;;;0.04;100.00;103290.09;4988473;28;20163;-63
2024/01/27 06:04:33;;;;;;;18.47;8.17;;;;;;;0.03;100.00;103294.31;4998670;28;20426;-63
2024/01/27 06:06:58;;;;;;;17.70;7.83;;;;;;;0.02;100.00;103289.03;5006589;28;20022;-63
2024/01/27 06:09:23;;;;;;;18.10;7.57;;;;;;;0.03;100.00;103288.28;5007184;28;20439;-63
2024/01/27 06:11:49;;;;;;;16.60;8.53;;;;;;;-0.01;100.00;103287.94;5005894;28;20022;-63
2024/01/27 06:14:14;;;;;;;15.60;7.70;;;;;;;-0.01;100.00;103289.59;5006187;28;20022;-63
2024/01/27 06:16:39;;;;;;;21.80;9.50;;;;;;;-0.01;100.00;103294.69;5005384;28;20490;-63
2024/01/27 06:19:04;;;;;;;17.33;9.00;;;;;;;-0.04;100.00;103282.50;5006233;28;20022;-63
2024/01/27 06:21:30;;;;;;;20.80;9.00;;;;;;;-0.03;100.00;103299.63;5005457;28;20025;-63
2024/01/27 06:23:55;;;;;;;16.00;7.77;;;;;;;-0.03;100.00;103293.59;5005424;28;20056;-63
2024/01/27 06:26:21;;;;;;;15.43;8.93;;;;;;;-0.03;100.00;103289.41;4999173;28;20073;-63
2024/01/27 06:28:46;;;;;;;18.10;9.90;;;;;;;-0.04;100.00;103296.88;4986647;28;20030;-63
2024/01/27 06:31:12;;;;;;;18.63;9.23;;;;;;;-0.06;100.00;103291.63;5004984;28;20541;-63
2024/01/27 06:33:37;;;;;;;16.60;9.13;;;;;;;-0.08;100.00;103294.72;4992850;28;20038;-63
2024/01/27 06:36:03;;;;;;;17.07;9.93;;;;;;;-0.03;100.00;103294.50;4981495;28;20093;-63
2024/01/27 06:38:28;;;;;;;20.27;8.53;;;;;;;-0.06;100.00;103291.63;4982972;28;20058;-63
2024/01/27 06:40:53;;;;;;;20.50;10.83;;;;;;;-0.09;100.00;103295.47;4983137;28;20029;-63
2024/01/27 06:43:19;;;;;;;18.10;9.47;;;;;;;-0.16;100.00;103293.81;4981354;28;20037;-63
2024/01/27 06:45:44;;;;;;;19.40;8.83;;;;;;;-0.20;100.00;103294.22;4994195;28;20123;-63
2024/01/27 06:48:09;;;;;;;19.33;9.23;;;;;;;-0.22;100.00;103305.88;4981574;28;20042;-63
2024/01/27 06:50:35;;;;;;;19.67;9.30;;;;;;;-0.23;100.00;103309.16;4987256;28;20423;-63
2024/01/27 06:53:01;;;;;;;17.43;8.23;;;;;;;-0.24;100.00;103313.34;4982102;28;20027;-63
2024/01/27 06:55:26;;;;;;;22.40;9.63;;;;;;;-0.27;100.00;103313.88;5007145;28;20033;-63
2024/01/27 06:57:51;;;;;;;17.50;9.47;;;;;;;-0.29;100.00;103309.34;4987749;28;20030;-63
2024/01/27 07:00:17;;;;;;;17.13;9.67;;;;;;;-0.31;100.00;103321.94;4985088;28;20062;-63
2024/01/27 07:02:43;;;;;;;14.60;8.43;;;;;;;-0.31;100.00;103321.00;4978776;28;20061;-63
2024/01/27 07:05:09;;;;;;;21.90;9.43;;;;;;;-0.34;100.00;103336.84;4972326;28;20497;-63
2024/01/27 07:07:34;;;;;;;18.60;9.40;;;;;;;-0.32;100.00;103329.38;4984465;28;20030;-63
2024/01/27 07:10:00;;;;;;;19.33;10.40;;;;;;;-0.33;100.00;103338.69;4982253;28;20058;-63
2024/01/27 07:12:25;;;;;;;24.33;11.10;;;;;;;-0.34;100.00;103347.03;4987959;28;20034;-63
2024/01/27 07:14:56;;;;;;;13.97;9.77;;;;;;;-0.33;100.00;103348.88;4971248;28;20031;-63
2024/01/27 07:17:22;;;;;;;16.07;9.00;;;;;;;-0.32;100.00;103347.19;4967132;28;20033;-63
2024/01/27 07:19:47;;;;;;;20.00;9.80;;;;;;;-0.34;100.00;103347.03;4990280;28;20017;-63
2024/01/27 07:22:12;;;;;;;24.90;10.40;;;;;;;-0.25;100.00;103343.00;5006748;28;20437;-63
2024/01/27 07:24:38;;;;;;;17.13;9.77;;;;;;;-0.26;100.00;103340.28;5005911;28;20086;-63
2024/01/27 07:27:03;;;;;;;17.83;10.03;;;;;;;-0.23;100.00;103349.94;5006603;28;20048;-63
2024/01/27 07:29:29;;;;;;;18.03;9.77;;;;;;;-0.20;100.00;103348.66;5000921;28;20376;-63
2024/01/27 07:31:55;;;;;;;18.30;9.53;;;;;;;-0.22;100.00;103346.66;4991450;28;20459;-63
2024/01/27 07:34:20;;;;;;;19.20;9.60;;;;;;;-0.21;100.00;103340.81;4983938;28;20477;-63
2024/01/27 07:36:47;;;;;;;16.67;9.60;;;;;;;-0.19;100.00;103357.19;4976706;28;20043;-63
2024/01/27 07:39:13;;;;;;;22.47;10.03;;;;;;;-0.18;100.00;103351.38;4995521;28;20029;-63
2024/01/27 07:41:38;;;;;;;18.50;10.20;;;;;;;-0.18;100.00;103351.38;4992039;28;20018;-63
2024/01/27 07:44:11;;;;;;;17.13;9.83;;;;;;;-0.15;100.00;103354.28;5004076;28;20024;-63
2024/01/27 07:46:38;;;;;;;17.77;10.53;;;;;;;-0.16;100.00;103350.81;4984434;28;20050;-63
2024/01/27 07:49:03;;;;;;;19.83;10.93;;;;;;;-0.13;100.00;103352.84;4992600;28;20101;-63
2024/01/27 07:51:29;;;;;;;19.90;10.80;;;;;;;-0.11;100.00;103355.56;5000490;28;20112;-63
2024/01/27 07:53:54;;;;;;;18.37;9.77;;;;;;;-0.07;100.00;103363.72;5003042;28;20386;-63
2024/01/27 07:56:20;;;;;;;24.57;10.23;;;;;;;-0.07;100.00;103363.72;4994666;28;20025;-63
2024/01/27 07:58:45;;;;;;;25.60;11.20;;;;;;;-0.06;100.00;103365.56;4990956;28;20030;-63
2024/01/27 08:01:15;;;;;;;23.63;10.13;;;;;;;-0.01;100.00;103371.19;4984441;28;20034;-63
2024/01/27 08:03:40;;;;;;;16.97;9.77;;;;;;;-0.05;100.00;103362.25;4981305;28;20398;-63
2024/01/27 08:06:09;;;;;;;15.87;10.23;;;;;;;-0.05;100.00;103359.72;4985137;28;20060;-64
2024/01/27 08:08:34;;;;;;;17.37;8.73;;;;;;;-0.02;100.00;103354.97;4993224;28;20153;-63
2024/01/27 08:10:59;;;;;;;21.43;9.67;;;;;;;0.03;100.00;103350.41;4988727;28;20113;-63
2024/01/27 08:13:25;;;;;;;20.97;10.83;;;;;;;0.06;100.00;103349.84;4999860;28;20478;-64
2024/01/27 08:15:50;;;;;;;19.93;8.50;;;;;;;0.06;100.00;103352.41;4980801;28;20085;-64
2024/01/27 08:18:15;;;;;;;19.27;9.20;;;;;;;0.07;100.00;103356.78;4992976;28;20025;-63
2024/01/27 08:20:40;;;;;;;19.07;9.67;;;;;;;0.12;100.00;103350.56;4995008;28;20023;-63
2024/01/27 08:23:06;;;;;;;20.87;9.80;;;;;;;0.15;100.00;103356.00;4994135;28;20018;-63
2024/01/27 08:25:31;;;;;;;22.17;9.70;;;;;;;0.19;100.00;103353.09;4988484;28;20462;-63
2024/01/27 08:27:56;;;;;;;21.13;9.07;;;;;;;0.21;100.00;103361.84;4998630;28;20104;-63
2024/01/27 08:30:22;;;;;;;18.37;9.50;;;;;;;0.20;100.00;103354.91;4983289;28;20093;-63
2024/01/27 08:32:47;;;;;;;23.27;10.53;;;;;;;0.22;100.00;103348.34;4994538;28;20029;-64
2024/01/27 08:35:12;;;;;;;21.23;10.03;;;;;;;0.25;100.00;103341.78;4980855;28;20205;-63
2024/01/27 08:37:38;;;;;;;20.37;10.63;;;;;;;0.30;100.00;103340.66;4973752;28;20026;-63
2024/01/27 08:40:08;;;;;;;18.77;11.27;;;;;;;0.37;100.00;103347.34;4987418;28;20026;-64
2024/01/27 08:42:33;;;;;;;24.77;12.93;;;;;;;0.56;100.00;103347.78;4993376;28;20482;-63
2024/01/27 08:44:58;;;;;;;15.30;11.07;;;;;;;0.72;100.00;103350.44;4988965;28;20363;-63
2024/01/27 08:47:24;;;;;;;17.73;10.60;;;;;;;0.82;100.00;103352.41;4995122;28;20259;-63
2024/01/27 08:49:49;;;;;;;22.63;10.67;;;;;;;0.85;100.00;103355.28;4982201;28;20451;-63
2024/01/27 08:52:14;;;;;;;16.03;10.00;;;;;;;1.01;100.00;103352.81;4988891;28;20497;-63
2024/01/27 08:54:40;;;;;;;19.20;10.40;;;;;;;1.27;100.00;103364.09;4995352;28;20034;-63
2024/01/27 08:57:07;;;;;;;20.00;10.00;;;;;;;1.54;100.00;103357.66;5007000;28;20045;-63
2024/01/27 08:59:32;;;;;;;17.93;8.67;;;;;;;1.80;100.00;103367.25;4991292;28;20041;-63
2024/01/27 09:01:58;;;;;;;17.70;8.37;;;;;;;2.00;100.00;103373.63;4986596;28;20044;-63
2024/01/27 09:04:23;;;;;;;17.80;8.80;;;;;;;2.11;100.00;103370.59;4984368;28;20030;-63
2024/01/27 09:06:48;;;;;;;21.00;8.53;;;;;;;2.13;100.00;103379.34;4979556;28;20030;-64
2024/01/27 09:09:14;;;;;;;22.23;8.57;;;;;;;2.20;100.00;103385.09;4973594;28;20026;-64
2024/01/27 09:11:39;;;;;;;16.87;7.53;;;;;;;2.31;100.00;103378.56;4982520;28;20027;-64
2024/01/27 09:14:07;;;;;;;16.50;8.27;;;;;;;2.22;100.00;103383.63;4984263;28;20049;-64
2024/01/27 09:16:32;;;;;;;16.40;7.97;;;;;;;2.22;100.00;103378.50;4980580;28;20483;-64
2024/01/27 09:18:57;;;;;;;15.43;7.77;;;;;;;2.24;100.00;103379.56;4976123;28;20302;-63
2024/01/27 09:21:27;;;;;;;14.73;7.80;;;;;;;2.24;100.00;103382.13;4983072;28;20326;-64
2024/01/27 09:23:53;;;;;;;14.93;8.20;;;;;;;2.27;100.00;103393.59;4969401;28;20089;-64
2024/01/27 09:26:19;;;;;;;15.57;7.60;;;;;;;2.26;100.00;103390.88;4974430;28;20026;-63
2024/01/27 09:28:45;;;;;;;17.20;7.37;;;;;;;2.28;100.00;103399.63;4989852;28;20030;-64
2024/01/27 09:31:11;;;;;;;17.93;7.50;;;;;;;2.26;100.00;103394.38;4983386;28;20057;-64
2024/01/27 09:33:36;;;;;;;14.23;7.57;;;;;;;2.27;100.00;103397.81;4978520;28;20078;-64
2024/01/27 09:36:02;;;;;;;13.33;7.17;;;;;;;2.31;100.00;103410.19;4990404;28;20417;-64
2024/01/27 09:38:28;;;;;;;19.13;7.57;;;;;;;2.24;100.00;103407.72;4999323;28;20427;-64
2024/01/27 09:40:53;;;;;;;15.67;7.47;;;;;;;2.25;100.00;103415.56;4974399;28;20442;-64
2024/01/27 09:43:19;;;;;;;15.97;7.73;;;;;;;2.25;100.00;103420.69;4986380;28;20019;-64
2024/01/27 09:45:45;;;;;;;17.53;7.53;;;;;;;2.26;100.00;103417.41;4980445;28;20088;-64
2024/01/27 09:48:12;;;;;;;17.63;6.80;;;;;;;2.31;100.00;103419.50;4980904;28;20046;-64
2024/01/27 09:50:41;;;;;;;15.63;7.57;;;;;;;2.33;100.00;103428.28;4986294;28;20106;-64
2024/01/27 09:53:08;;;;;;;15.10;7.30;;;;;;;2.32;100.00;103416.22;4982843;28;20023;-63
2024/01/27 09:55:33;;;;;;;14.53;7.27;;;;;;;2.33;100.00;103418.97;4987886;28;20034;-63
2024/01/27 09:57:59;;;;;;;15.70;7.00;;;;;;;2.35;100.00;103417.47;4984377;28;20458;-64
2024/01/27 10:00:26;;;;;;;17.07;7.93;;;;;;;2.41;100.00;103427.47;4983616;28;20026;-63
2024/01/27 10:02:52;;;;;;;14.90;7.23;;;;;;;2.44;100.00;103432.00;4978918;28;20014;-64
2024/01/27 10:05:18;;;;;;;19.30;6.50;;;;;;;2.51;100.00;103435.38;4975697;28;20037;-63
2024/01/27 10:07:44;;;;;;;14.70;6.47;;;;;;;2.57;100.00;103437.69;4981086;28;20027;-63
2024/01/27 10:10:09;;;;;;;18.53;6.80;;;;;;;2.64;100.00;103442.69;4990586;28;20787;-64
2024/01/27 10:12:40;;;;;;;17.93;6.97;;;;;;;2.71;100.00;103433.13;4974664;28;20496;-63
2024/01/27 10:15:05;;;;;;;12.32;6.50;;;;;;;2.79;100.00;103436.50;4975612;28;20537;-63
2024/01/27 10:17:35;;;;;;;18.70;7.73;;;;;;;2.87;100.00;103439.13;4978845;28;20034;-64
2024/01/27 10:20:05;;;;;;;15.20;6.20;;;;;;;3.00;100.00;103433.59;4993176;28;20032;-63
2024/01/27 10:22:44;;;;;;;17.60;6.90;;;;;;;3.12;100.00;103441.69;4979411;28;20031;-63
2024/01/27 10:25:10;;;;;;;14.20;6.20;;;;;;;3.20;100.00;103439.91;4978680;28;20027;-64
2024/01/27 10:27:35;;;;;;;15.20;6.03;;;;;;;3.32;100.00;103441.94;4989789;28;20041;-63
2024/01/27 10:30:01;;;;;;;14.00;6.30;;;;;;;3.40;100.00;103430.81;4997023;28;20025;-64
2024/01/27 10:32:26;;;;;;;13.43;6.07;;;;;;;3.46;100.00;103426.34;4988359;28;20403;-64
2024/01/27 10:35:21;;;;;;;13.27;6.10;;;;;;;3.57;100.00;103430.00;4980852;28;20027;-64
2024/01/27 10:37:46;;;;;;;10.60;5.33;;;;;;;3.66;100.00;103436.81;4981813;28;20165;-64
2024/01/27 10:40:12;;;;;;;15.17;6.63;;;;;;;3.70;100.00;103445.00;5000645;28;20114;-63
2024/01/27 10:42:38;;;;;;;15.90;6.00;;;;;;;3.78;100.00;103448.31;4995338;28;20352;-64
2024/01/27 10:45:04;;;;;;;16.00;5.40;;;;;;;3.84;100.00;103448.03;4981947;28;20102;-64
2024/01/27 10:47:32;;;;;;;20.87;6.97;;;;;;;3.91;100.00;103445.34;4989937;28;20046;-63
2024/01/27 10:49:59;;;;;;;17.33;8.00;;;;;;;3.98;100.00;103441.75;4985744;28;20030;-64
2024/01/27 10:52:28;;;;;;;13.33;6.27;;;;;;;4.04;100.00;103444.94;4987104;28;20030;-63
2024/01/27 10:55:02;;;;;;;19.10;6.40;;;;;;;4.11;100.00;103435.28;4995351;28;20109;-64
2024/01/27 10:57:29;;;;;;;16.53;6.30;;;;;;;4.18;100.00;103433.47;5009522;28;20022;-63
2024/01/27 10:59:56;;;;;;;14.27;6.57;;;;;;;4.26;100.00;103430.78;4995752;28;20030;-64
2024/01/27 11:02:22;;;;;;;15.43;6.30;;;;;;;4.36;100.00;103427.44;5002375;28;20446;-64
2024/01/27 11:04:48;;;;;;;17.83;6.43;;;;;;;4.39;100.00;103428.66;4992565;28;20027;-64
2024/01/27 11:07:13;;;;;;;18.23;6.47;;;;;;;4.48;100.00;103420.97;4981947;28;20026;-64